Flight Track Log - Related Links

Times and Time Zones

All times are in EDT time to prevent confusion due to time zone crossing. See the ASQ5958 flight status page for this flight to view local times or setup timezone preferences in your user account.

Time Position Orientation Groundspeed Altitude Reporting Facility
EDT Latitude Longitude Course Direction KTS MPH feet Rate Location/Type
Wed 08:28:18 AM 42.0167 -87.8833 75° East 153 176 2,700  Level Chicago TRACON
Wed 08:29:18 AM 42.0333 -87.8000 75° East 211 243 4,100 1,097 Climbing Chicago TRACON
Wed 08:31:24 AM 42.0461 -87.6058 85° East 285 328 6,100 1,476 Climbing Chicago Center
Wed 08:32:25 AM 42.0517 -87.4697 87° East 305 351 8,700 2,049 Climbing Chicago Center
Wed 08:33:27 AM 42.0222 -87.3569 109° East 321 369 10,300 1,756 Climbing Chicago Center
Wed 08:34:28 AM 41.9906 -87.2406 110° East 331 381 12,300 1,805 Climbing Chicago Center
Wed 08:35:30 AM 41.9589 -87.1189 109° East 345 397 14,000 1,452 Climbing Chicago Center
Wed 08:36:32 AM 41.9447 -86.9831 98° East 382 440 15,300 1,131 Climbing Chicago Center
Wed 08:37:32 AM 41.9481 -86.8336 88° East 400 460 16,300 1,820 Climbing Chicago Center
Wed 08:38:34 AM 41.9508 -86.6869 88° East 405 466 19,000 2,000 Climbing Chicago Center
Wed 08:39:35 AM 41.9519 -86.5461 89° East 382 440 20,400 1,082 Climbing Chicago Center
Wed 08:40:36 AM 41.9536 -86.3625 89° East 408 470 21,200 829 Climbing Chicago Center
Wed 08:41:38 AM 41.9500 -86.2003 92° East 429 494 22,100 780 Climbing Chicago Center
Wed 08:42:39 AM 41.9064 -86.0464 111° Southeast 438 504 22,800 1,033 Climbing Chicago Center
Wed 08:43:40 AM 41.8822 -85.8856 101° East 443 510 24,200 1,073 Climbing Chicago Center
Wed 08:44:42 AM 41.8744 -85.7208 94° East 441 507 25,000 829 Climbing Chicago Center
Wed 08:45:43 AM 41.8536 -85.5553 100° East 446 513 25,900 1,268 Climbing Chicago Center
Wed 08:46:45 AM 41.8222 -85.3972 105° East 431 496 27,600 1,366 Climbing Chicago Center
Wed 08:47:46 AM 41.7900 -85.2436 106° East 422 486 28,700 1,180 Climbing Chicago Center
Wed 08:48:47 AM 41.7589 -85.0897 105° East 424 488 30,000 1,373 Climbing Chicago Center
Wed 08:49:09 AM 41.7450 -85.0169 104° East 433 498 30,600 1,390 Climbing Cleveland Center
Wed 08:50:09 AM 41.7172 -84.8706 104° East 421 484 31,900 1,050 Climbing Cleveland Center
Wed 08:51:09 AM 41.6831 -84.7208 107° East 416 479 32,700 550 Climbing Cleveland Center
Wed 08:52:09 AM 41.6511 -84.5631 105° East 428 493 33,000 150 Climbing Cleveland Center
Wed 08:53:09 AM 41.6128 -84.4050 108° East 438 504 33,000  Level Cleveland Center
Wed 08:53:54 AM 41.5339 -84.3469 151° Southeast 437 503 33,000  Level Chicago Center
Wed 08:54:09 AM 41.5064 -84.3406 170° South 383 441 33,000  Level Cleveland Center
Wed 08:55:09 AM 41.4025 -84.3925 201° Southwest 335 386 33,000  Level Cleveland Center
Wed 08:55:57 AM 41.3239 -84.4428 206° Southwest 401 461 33,000  Level Chicago Center
Wed 08:56:58 AM 41.2208 -84.5036 204° Southwest 403 464 33,000  Level Chicago Center
Wed 08:59:12 AM 41.0108 -84.6364 206° Southwest 387 445 33,000  Level Indianapolis Center
Wed 08:59:37 AM 40.9692 -84.6658 208° Southwest 387 445 33,000  Level Chicago Center
Wed 09:00:38 AM 40.8697 -84.7353 208° Southwest 394 453 33,000  Level Chicago Center
Wed 09:01:40 AM 40.7681 -84.8119 210° Southwest 407 468 33,000  Level Chicago Center
Wed 09:02:41 AM 40.6636 -84.8853 208° Southwest 420 483 33,000  Level Chicago Center
Wed 09:03:19 AM 40.5792 -84.9303 202° Southwest 431 496 33,000  Level Indianapolis Center
Wed 09:04:21 AM 40.4667 -84.9928 203° Southwest 433 498 33,000  Level Indianapolis Center
Wed 09:05:22 AM 40.3542 -85.0550 203° Southwest 435 501 33,000  Level Indianapolis Center
Wed 09:06:24 AM 40.2433 -85.1150 202° Southwest 431 496 33,000  Level Indianapolis Center
Wed 09:07:26 AM 40.1311 -85.1758 203° Southwest 433 498 33,000 -48 Level Indianapolis Center
Wed 09:08:28 AM 40.0169 -85.2378 203° Southwest 439 505 32,900  Descending Indianapolis Center
Wed 09:09:29 AM 39.9011 -85.3000 202° Southwest 445 512 33,000 49 Climbing Indianapolis Center
Wed 09:10:31 AM 39.7661 -85.3731 203° Southwest 447 514 33,000  Level Indianapolis Center
Wed 09:11:33 AM 39.6500 -85.4344 202° Southwest 446 513 33,000  Level Indianapolis Center
Wed 09:12:35 AM 39.5353 -85.4964 203° Southwest 444 511 33,000  Level Indianapolis Center
Wed 09:13:37 AM 39.4225 -85.5564 202° Southwest 437 503 33,000  Level Indianapolis Center
Wed 09:14:38 AM 39.3189 -85.6117 202° Southwest 429 494 33,000  Level Indianapolis Center
Wed 09:15:40 AM 39.2081 -85.6711 203° Southwest 430 495 33,000 -387 Level Indianapolis Center
Wed 09:16:42 AM 39.0700 -85.7414 202° Southwest 440 506 32,200 -871 Descending Indianapolis Center
Wed 09:17:44 AM 38.9578 -85.7997 202° Southwest 434 499 31,200 -968 Descending Indianapolis Center
Wed 09:18:46 AM 38.8486 -85.8583 203° Southwest 424 488 30,200 -581 Descending Indianapolis Center
Wed 09:19:48 AM 38.7325 -85.8953 194° South 435 501 30,000 -98 Descending Indianapolis Center
Wed 09:20:49 AM 38.6094 -85.9056 184° South 438 504 30,000  Level Indianapolis Center
Wed 09:21:51 AM 38.4861 -85.9097 182° South 438 504 30,000  Level Indianapolis Center
Wed 09:22:53 AM 38.3617 -85.8933 174° South 444 511 30,000  Level Indianapolis Center
Wed 09:23:55 AM 38.2383 -85.8778 174° South 443 510 30,000  Level Indianapolis Center
Wed 09:24:57 AM 38.1136 -85.8606 174° South 446 513 30,000  Level Indianapolis Center
Wed 09:25:59 AM 37.9636 -85.8406 174° South 449 517 30,000 -194 Level Indianapolis Center
Wed 09:27:01 AM 37.8400 -85.8250 174° South 445 512 29,600 -726 Descending Indianapolis Center
Wed 09:28:03 AM 37.7150 -85.8089 174° South 446 513 28,500 -1,016 Descending Indianapolis Center
Wed 09:29:05 AM 37.5897 -85.7939 175° South 450 518 27,500 -968 Descending Indianapolis Center
Wed 09:30:07 AM 37.4633 -85.7769 174° South 451 519 26,500 -1,016 Descending Indianapolis Center
Wed 09:31:09 AM 37.3411 -85.7619 174° South 442 509 25,400 -1,129 Descending Indianapolis Center
Wed 09:31:32 AM 37.2819 -85.7561 176° South 442 509 24,900 -1,157 Descending Memphis Center
Wed 09:32:32 AM 37.1628 -85.7419 175° South 442 509 23,800 -950 Descending Memphis Center
Wed 09:33:32 AM 37.0436 -85.7333 177° South 435 501 23,000 -1,300 Descending Memphis Center
Wed 09:34:32 AM 36.9344 -85.7683 194° South 403 464 21,200 -2,450 Descending Memphis Center
Wed 09:35:32 AM 36.8300 -85.8183 201° Southwest 403 464 18,100 -2,750 Descending Memphis Center
Wed 09:36:32 AM 36.7419 -85.8569 199° South 392 451 15,700 -2,650 Descending Memphis Center
Wed 09:37:32 AM 36.6567 -85.9186 210° Southwest 376 433 12,800 -2,200 Descending Memphis Center
Wed 09:38:32 AM 36.5931 -86.0100 229° Southwest 341 392 11,300 -900 Descending Memphis Center
Wed 09:39:32 AM 36.5336 -86.0983 230° Southwest 341 392 11,000 -450 Descending Memphis Center
Wed 09:40:32 AM 36.4781 -86.1814 230° Southwest 326 375 10,400 -1,000 Descending Memphis Center
Wed 09:41:32 AM 36.4267 -86.2614 231° Southwest 288 331 9,000 -1,500 Descending Memphis Center
Wed 09:42:32 AM 36.3806 -86.3256 228° Southwest 262 302 7,400 -1,600 Descending Memphis Center
Wed 09:43:32 AM 36.3433 -86.3969 237° Southwest 257 296 5,800 -1,550 Descending Memphis Center
Wed 09:44:32 AM 36.3081 -86.4656 237° Southwest 239 275 4,300 -1,350 Descending Memphis Center
Wed 09:45:32 AM 36.2725 -86.5292 235° Southwest 239 275 3,100 -1,000 Descending Memphis Center
Wed 09:46:32 AM 36.2369 -86.5925 235° Southwest 239 275 2,300 -600 Descending Memphis Center
Wed 09:47:32 AM 36.2072 -86.6428 234° Southwest 214 246 1,900 -450 Descending Memphis Center
Wed 09:48:32 AM 36.1786 -86.6647 212° Southwest 167 192 1,400 -600 Descending Memphis Center
Wed 09:49:32 AM 36.1433 -86.6739 192° South 133 153 700 -400 Descending Memphis Center
Wed 09:50:32 AM 36.1044 -86.6961 205° Southwest 133 153 600 -100 Descending Memphis Center
Wed 09:52:00 AM 36.1167 -86.6667 39° Northeast  Level FlightAware Approximate
Wed 09:59:00 AM 36.1245 -86.6782 39° Northeast  Level Estimated
Wed 10:00:00 AM 36.1245 -86.6782 39° Northeast  Level Estimated
Wed 10:01:00 AM 36.1245 -86.6782 39° Northeast  Level Estimated
Wed 10:02:00 AM 36.1245 -86.6782 39° Northeast  Level Estimated
Wed 10:03:00 AM 36.1245 -86.6782 39° Northeast  Level Estimated
Wed 10:04:00 AM 36.1245 -86.6782 39° Northeast  Level Estimated
Wed 10:05:00 AM 36.1245 -86.6782 39° Northeast  Level Estimated
Wed 10:06:00 AM 36.1245 -86.6782 39° Northeast  Level Estimated
Wed 10:07:00 AM 36.1245 -86.6782 39° Northeast  Level Estimated

Login

Don't have an account? Register now (free) for customized features, flight alerts, and more!